Terminal Aerodrome Forecast
Issued by NWS

Home | Current Version | Previous Version | Text Only | Print | Product List | Glossary On
Versions: 1 2 3 4 5 6 7 8 9 10 11 12 13 14
000
FTUS41 KBTV 251520 AAA
TAFSLK
TAF AMD
KSLK 251520Z 2515/2612 10005KT P6SM -RA SCT035 OVC060
     FM252100 08005KT P6SM VCSH OVC050
     FM260300 VRB03KT 6SM BR VCSH OVC008
     FM260800 24004KT 5SM -RA BR BKN008 OVC015=

USA.gov is the U.S. government's official web portal to all federal, state and local government web resources and services.